sensor_id;sensor_type;location;lat;lon;timestamp;pressure;altitude;pressure_sealevel;temperature
69857;BMP280;57147;53.582;10.112;2022-07-29T00:02:36;102002.09;;;14.05
69857;BMP280;57147;53.582;10.112;2022-07-29T00:07:39;102000.56;;;13.98
69857;BMP280;57147;53.582;10.112;2022-07-29T00:12:40;101999.56;;;13.89
69857;BMP280;57147;53.582;10.112;2022-07-29T00:17:41;102002.88;;;13.81
69857;BMP280;57147;53.582;10.112;2022-07-29T00:22:44;101990.69;;;13.70
69857;BMP280;57147;53.582;10.112;2022-07-29T00:27:44;101990.50;;;13.61
69857;BMP280;57147;53.582;10.112;2022-07-29T00:32:45;101991.81;;;13.64
69857;BMP280;57147;53.582;10.112;2022-07-29T00:37:48;101990.22;;;13.63
69857;BMP280;57147;53.582;10.112;2022-07-29T00:42:51;101975.91;;;13.54
69857;BMP280;57147;53.582;10.112;2022-07-29T00:47:51;101972.78;;;13.47
69857;BMP280;57147;53.582;10.112;2022-07-29T00:52:55;101965.97;;;13.31
69857;BMP280;57147;53.582;10.112;2022-07-29T00:57:56;101973.38;;;13.39
69857;BMP280;57147;53.582;10.112;2022-07-29T01:02:58;101975.03;;;13.35
69857;BMP280;57147;53.582;10.112;2022-07-29T01:08:02;101967.09;;;13.25
69857;BMP280;57147;53.582;10.112;2022-07-29T01:13:03;101966.09;;;13.15
69857;BMP280;57147;53.582;10.112;2022-07-29T01:18:09;101957.50;;;13.24
69857;BMP280;57147;53.582;10.112;2022-07-29T01:23:27;101949.25;;;13.20
69857;BMP280;57147;53.582;10.112;2022-07-29T01:28:55;101947.44;;;13.15
69857;BMP280;57147;53.582;10.112;2022-07-29T01:34:02;101945.81;;;13.14
69857;BMP280;57147;53.582;10.112;2022-07-29T01:39:07;101925.06;;;13.11
69857;BMP280;57147;53.582;10.112;2022-07-29T01:44:18;101928.22;;;13.18
69857;BMP280;57147;53.582;10.112;2022-07-29T01:49:23;101926.00;;;13.26
69857;BMP280;57147;53.582;10.112;2022-07-29T01:54:30;101919.31;;;13.28
69857;BMP280;57147;53.582;10.112;2022-07-29T01:59:36;101919.06;;;13.30
69857;BMP280;57147;53.582;10.112;2022-07-29T02:04:39;101924.09;;;13.31
69857;BMP280;57147;53.582;10.112;2022-07-29T02:09:41;101912.38;;;13.27
69857;BMP280;57147;53.582;10.112;2022-07-29T02:14:48;101899.56;;;13.29
69857;BMP280;57147;53.582;10.112;2022-07-29T02:19:50;101911.41;;;13.47
69857;BMP280;57147;53.582;10.112;2022-07-29T02:24:52;101907.59;;;13.53
69857;BMP280;57147;53.582;10.112;2022-07-29T02:29:58;101899.16;;;13.46
69857;BMP280;57147;53.582;10.112;2022-07-29T02:35:01;101897.19;;;13.51
69857;BMP280;57147;53.582;10.112;2022-07-29T02:40:02;101896.91;;;13.53
69857;BMP280;57147;53.582;10.112;2022-07-29T02:45:07;101898.00;;;13.52
69857;BMP280;57147;53.582;10.112;2022-07-29T02:50:11;101889.94;;;13.57
69857;BMP280;57147;53.582;10.112;2022-07-29T02:55:17;101889.34;;;13.60
69857;BMP280;57147;53.582;10.112;2022-07-29T03:00:23;101891.53;;;13.58
69857;BMP280;57147;53.582;10.112;2022-07-29T03:05:27;101862.81;;;13.50
69857;BMP280;57147;53.582;10.112;2022-07-29T03:10:28;101879.72;;;13.64
69857;BMP280;57147;53.582;10.112;2022-07-29T03:15:32;101868.81;;;13.60
69857;BMP280;57147;53.582;10.112;2022-07-29T03:20:33;101862.44;;;13.56
69857;BMP280;57147;53.582;10.112;2022-07-29T03:25:34;101862.81;;;13.50
69857;BMP280;57147;53.582;10.112;2022-07-29T03:30:37;101879.72;;;13.64
69857;BMP280;57147;53.582;10.112;2022-07-29T03:35:38;101875.41;;;13.68
69857;BMP280;57147;53.582;10.112;2022-07-29T03:40:44;101865.97;;;13.76
69857;BMP280;57147;53.582;10.112;2022-07-29T03:45:51;101862.44;;;13.80
69857;BMP280;57147;53.582;10.112;2022-07-29T03:50:53;101871.78;;;13.83
69857;BMP280;57147;53.582;10.112;2022-07-29T03:55:55;101869.25;;;13.91
69857;BMP280;57147;53.582;10.112;2022-07-29T04:00:59;101872.44;;;13.93
69857;BMP280;57147;53.582;10.112;2022-07-29T04:06:02;101868.09;;;13.97
69857;BMP280;57147;53.582;10.112;2022-07-29T04:11:03;101870.50;;;13.99
69857;BMP280;57147;53.582;10.112;2022-07-29T04:16:07;101878.16;;;14.06
69857;BMP280;57147;53.582;10.112;2022-07-29T04:21:08;101869.56;;;14.09
69857;BMP280;57147;53.582;10.112;2022-07-29T04:26:09;101872.69;;;14.16
69857;BMP280;57147;53.582;10.112;2022-07-29T04:31:12;101857.75;;;14.15
69857;BMP280;57147;53.582;10.112;2022-07-29T04:36:13;101876.28;;;14.25
69857;BMP280;57147;53.582;10.112;2022-07-29T04:41:14;101867.13;;;14.31
69857;BMP280;57147;53.582;10.112;2022-07-29T04:46:17;101862.78;;;14.35
69857;BMP280;57147;53.582;10.112;2022-07-29T04:51:18;101857.34;;;14.40
69857;BMP280;57147;53.582;10.112;2022-07-29T04:56:18;101864.03;;;14.56
69857;BMP280;57147;53.582;10.112;2022-07-29T05:01:21;101871.84;;;14.71
69857;BMP280;57147;53.582;10.112;2022-07-29T05:06:22;101872.06;;;14.88
69857;BMP280;57147;53.582;10.112;2022-07-29T05:11:23;101871.50;;;14.92
69857;BMP280;57147;53.582;10.112;2022-07-29T05:16:26;101879.06;;;15.03
69857;BMP280;57147;53.582;10.112;2022-07-29T05:21:26;101873.72;;;15.17
69857;BMP280;57147;53.582;10.112;2022-07-29T05:26:27;101873.75;;;15.44
69857;BMP280;57147;53.582;10.112;2022-07-29T05:31:30;101868.66;;;15.56
69857;BMP280;57147;53.582;10.112;2022-07-29T05:36:31;101878.88;;;15.82
69857;BMP280;57147;53.582;10.112;2022-07-29T05:41:32;101895.38;;;16.11
69857;BMP280;57147;53.582;10.112;2022-07-29T05:46:35;101890.75;;;16.25
69857;BMP280;57147;53.582;10.112;2022-07-29T05:51:36;101893.22;;;16.35
69857;BMP280;57147;53.582;10.112;2022-07-29T05:56:36;101893.72;;;16.59
69857;BMP280;57147;53.582;10.112;2022-07-29T06:01:40;101893.22;;;16.80
69857;BMP280;57147;53.582;10.112;2022-07-29T06:06:40;101889.84;;;17.05
69857;BMP280;57147;53.582;10.112;2022-07-29T06:11:41;101889.56;;;17.15
69857;BMP280;57147;53.582;10.112;2022-07-29T06:16:44;101884.56;;;17.22
69857;BMP280;57147;53.582;10.112;2022-07-29T06:21:46;101884.13;;;17.37
69857;BMP280;57147;53.582;10.112;2022-07-29T06:26:46;101877.53;;;17.52
69857;BMP280;57147;53.582;10.112;2022-07-29T06:31:49;101883.72;;;17.70
69857;BMP280;57147;53.582;10.112;2022-07-29T06:36:50;101875.84;;;17.99
69857;BMP280;57147;53.582;10.112;2022-07-29T06:41:51;101885.50;;;18.26
69857;BMP280;57147;53.582;10.112;2022-07-29T06:46:54;101880.56;;;18.36
69857;BMP280;57147;53.582;10.112;2022-07-29T06:51:55;101880.38;;;18.50
69857;BMP280;57147;53.582;10.112;2022-07-29T06:56:56;101879.09;;;18.65
69857;BMP280;57147;53.582;10.112;2022-07-29T07:01:59;101869.34;;;18.81
69857;BMP280;57147;53.582;10.112;2022-07-29T07:06:59;101866.22;;;18.79
69857;BMP280;57147;53.582;10.112;2022-07-29T07:12:00;101863.19;;;18.80
69857;BMP280;57147;53.582;10.112;2022-07-29T07:17:04;101864.63;;;18.78
69857;BMP280;57147;53.582;10.112;2022-07-29T07:22:05;101858.25;;;18.91
69857;BMP280;57147;53.582;10.112;2022-07-29T07:27:05;101845.09;;;18.89
69857;BMP280;57147;53.582;10.112;2022-07-29T07:32:09;101849.13;;;19.13
69857;BMP280;57147;53.582;10.112;2022-07-29T07:37:09;101852.22;;;19.23
69857;BMP280;57147;53.582;10.112;2022-07-29T07:42:10;101852.56;;;19.42
69857;BMP280;57147;53.582;10.112;2022-07-29T07:47:13;101827.22;;;19.44
69857;BMP280;57147;53.582;10.112;2022-07-29T07:52:15;101849.78;;;19.72
69857;BMP280;57147;53.582;10.112;2022-07-29T07:57:16;101848.75;;;19.85
69857;BMP280;57147;53.582;10.112;2022-07-29T08:02:20;101849.22;;;19.87
69857;BMP280;57147;53.582;10.112;2022-07-29T08:07:20;101848.72;;;20.06
69857;BMP280;57147;53.582;10.112;2022-07-29T08:12:21;101845.63;;;20.28
69857;BMP280;57147;53.582;10.112;2022-07-29T08:17:24;101845.09;;;20.34
69857;BMP280;57147;53.582;10.112;2022-07-29T08:22:25;101849.03;;;20.37
69857;BMP280;57147;53.582;10.112;2022-07-29T08:27:25;101849.38;;;20.48
69857;BMP280;57147;53.582;10.112;2022-07-29T08:32:29;101849.38;;;20.72
69857;BMP280;57147;53.582;10.112;2022-07-29T08:37:29;101843.97;;;20.96
69857;BMP280;57147;53.582;10.112;2022-07-29T08:42:30;101840.63;;;20.87
69857;BMP280;57147;53.582;10.112;2022-07-29T08:47:34;101842.41;;;20.95
69857;BMP280;57147;53.582;10.112;2022-07-29T08:52:37;101839.94;;;20.90
69857;BMP280;57147;53.582;10.112;2022-07-29T08:57:38;101847.16;;;20.98
69857;BMP280;57147;53.582;10.112;2022-07-29T09:02:45;101833.84;;;21.17
69857;BMP280;57147;53.582;10.112;2022-07-29T09:07:48;101833.34;;;21.27
69857;BMP280;57147;53.582;10.112;2022-07-29T09:12:49;101829.91;;;21.43
69857;BMP280;57147;53.582;10.112;2022-07-29T09:17:52;101830.50;;;21.64
69857;BMP280;57147;53.582;10.112;2022-07-29T09:22:53;101819.78;;;21.95
69857;BMP280;57147;53.582;10.112;2022-07-29T09:27:54;101826.59;;;22.20
69857;BMP280;57147;53.582;10.112;2022-07-29T09:32:58;101820.47;;;22.55
69857;BMP280;57147;53.582;10.112;2022-07-29T09:38:09;101820.13;;;23.10
69857;BMP280;57147;53.582;10.112;2022-07-29T09:43:11;101820.28;;;23.56
69857;BMP280;57147;53.582;10.112;2022-07-29T09:48:16;101817.06;;;23.92
69857;BMP280;57147;53.582;10.112;2022-07-29T09:53:32;101818.06;;;24.07
69857;BMP280;57147;53.582;10.112;2022-07-29T09:58:33;101821.06;;;24.24
69857;BMP280;57147;53.582;10.112;2022-07-29T10:03:50;101831.19;;;24.54
69857;BMP280;57147;53.582;10.112;2022-07-29T10:08:51;101830.75;;;24.78
69857;BMP280;57147;53.582;10.112;2022-07-29T10:13:52;101824.78;;;24.95
69857;BMP280;57147;53.582;10.112;2022-07-29T10:18:55;101808.28;;;24.81
69857;BMP280;57147;53.582;10.112;2022-07-29T10:23:56;101809.91;;;24.85
69857;BMP280;57147;53.582;10.112;2022-07-29T10:28:57;101813.16;;;24.98
69857;BMP280;57147;53.582;10.112;2022-07-29T10:34:07;101807.72;;;24.98
69857;BMP280;57147;53.582;10.112;2022-07-29T10:39:18;101800.16;;;25.14
69857;BMP280;57147;53.582;10.112;2022-07-29T10:44:22;101799.56;;;25.31
69857;BMP280;57147;53.582;10.112;2022-07-29T10:49:26;101801.13;;;25.32
69857;BMP280;57147;53.582;10.112;2022-07-29T10:54:51;101794.50;;;25.30
69857;BMP280;57147;53.582;10.112;2022-07-29T11:00:28;101787.97;;;25.34
69857;BMP280;57147;53.582;10.112;2022-07-29T11:05:51;101788.03;;;25.41
69857;BMP280;57147;53.582;10.112;2022-07-29T11:16:09;101789.81;;;25.71
69857;BMP280;57147;53.582;10.112;2022-07-29T11:21:34;101785.91;;;26.19
69857;BMP280;57147;53.582;10.112;2022-07-29T11:26:36;101776.78;;;26.63
69857;BMP280;57147;53.582;10.112;2022-07-29T11:31:39;101778.81;;;26.87
69857;BMP280;57147;53.582;10.112;2022-07-29T11:37:17;101765.66;;;27.81
69857;BMP280;57147;53.582;10.112;2022-07-29T11:42:40;101760.97;;;27.85
69857;BMP280;57147;53.582;10.112;2022-07-29T11:47:47;101762.50;;;26.94
69857;BMP280;57147;53.582;10.112;2022-07-29T11:52:50;101752.44;;;27.26
69857;BMP280;57147;53.582;10.112;2022-07-29T11:57:52;101753.56;;;27.04
69857;BMP280;57147;53.582;10.112;2022-07-29T12:02:53;101744.59;;;27.35
69857;BMP280;57147;53.582;10.112;2022-07-29T12:08:04;101748.34;;;28.26
69857;BMP280;57147;53.582;10.112;2022-07-29T12:13:05;101726.91;;;28.94
69857;BMP280;57147;53.582;10.112;2022-07-29T12:18:10;101741.25;;;29.49
69857;BMP280;57147;53.582;10.112;2022-07-29T12:23:14;101737.31;;;29.09
69857;BMP280;57147;53.582;10.112;2022-07-29T12:28:15;101738.81;;;29.62
69857;BMP280;57147;53.582;10.112;2022-07-29T12:33:19;101719.09;;;29.77
69857;BMP280;57147;53.582;10.112;2022-07-29T12:38:22;101716.38;;;29.36
69857;BMP280;57147;53.582;10.112;2022-07-29T12:43:24;101726.00;;;29.04
69857;BMP280;57147;53.582;10.112;2022-07-29T12:48:34;101731.44;;;29.55
69857;BMP280;57147;53.582;10.112;2022-07-29T12:53:38;101721.00;;;29.43
69857;BMP280;57147;53.582;10.112;2022-07-29T12:58:41;101736.28;;;28.92
69857;BMP280;57147;53.582;10.112;2022-07-29T13:03:45;101725.81;;;29.69
69857;BMP280;57147;53.582;10.112;2022-07-29T13:09:01;101711.88;;;30.47
69857;BMP280;57147;53.582;10.112;2022-07-29T13:14:02;101697.91;;;30.88
69857;BMP280;57147;53.582;10.112;2022-07-29T13:19:11;101700.75;;;31.51
69857;BMP280;57147;53.582;10.112;2022-07-29T13:24:14;101704.66;;;31.50
69857;BMP280;57147;53.582;10.112;2022-07-29T13:29:15;101694.19;;;31.45
69857;BMP280;57147;53.582;10.112;2022-07-29T13:34:18;101692.94;;;31.85
69857;BMP280;57147;53.582;10.112;2022-07-29T13:39:22;101703.19;;;31.02
69857;BMP280;57147;53.582;10.112;2022-07-29T13:44:22;101694.59;;;31.00
69857;BMP280;57147;53.582;10.112;2022-07-29T13:49:23;101704.09;;;31.38
69857;BMP280;57147;53.582;10.112;2022-07-29T13:54:26;101709.22;;;29.46
69857;BMP280;57147;53.582;10.112;2022-07-29T13:59:27;101698.28;;;28.54
69857;BMP280;57147;53.582;10.112;2022-07-29T14:04:28;101706.31;;;28.06
69857;BMP280;57147;53.582;10.112;2022-07-29T14:09:31;101711.09;;;27.66
69857;BMP280;57147;53.582;10.112;2022-07-29T14:14:32;101701.34;;;27.41
69857;BMP280;57147;53.582;10.112;2022-07-29T14:19:33;101690.06;;;26.86
69857;BMP280;57147;53.582;10.112;2022-07-29T14:24:37;101701.78;;;27.04
69857;BMP280;57147;53.582;10.112;2022-07-29T14:29:37;101700.59;;;26.98
69857;BMP280;57147;53.582;10.112;2022-07-29T14:34:38;101699.78;;;26.90
69857;BMP280;57147;53.582;10.112;2022-07-29T14:39:41;101710.59;;;26.58
69857;BMP280;57147;53.582;10.112;2022-07-29T14:44:42;101696.44;;;26.14
69857;BMP280;57147;53.582;10.112;2022-07-29T14:49:42;101661.00;;;26.03
69857;BMP280;57147;53.582;10.112;2022-07-29T14:54:46;101686.78;;;26.27
69857;BMP280;57147;53.582;10.112;2022-07-29T14:59:47;101675.59;;;26.60
69857;BMP280;57147;53.582;10.112;2022-07-29T15:04:47;101685.34;;;27.74
69857;BMP280;57147;53.582;10.112;2022-07-29T15:09:50;101687.31;;;28.57
69857;BMP280;57147;53.582;10.112;2022-07-29T15:14:51;101679.50;;;28.59
69857;BMP280;57147;53.582;10.112;2022-07-29T15:19:52;101678.00;;;28.51
69857;BMP280;57147;53.582;10.112;2022-07-29T15:24:55;101681.13;;;29.45
69857;BMP280;57147;53.582;10.112;2022-07-29T15:29:56;101672.81;;;30.17
69857;BMP280;57147;53.582;10.112;2022-07-29T15:34:57;101671.41;;;30.32
69857;BMP280;57147;53.582;10.112;2022-07-29T15:40:00;101670.56;;;29.81
69857;BMP280;57147;53.582;10.112;2022-07-29T15:45:01;101658.72;;;29.17
69857;BMP280;57147;53.582;10.112;2022-07-29T15:50:01;101665.41;;;28.61
69857;BMP280;57147;53.582;10.112;2022-07-29T15:55:06;101653.47;;;29.70
69857;BMP280;57147;53.582;10.112;2022-07-29T16:00:08;101663.50;;;29.80
69857;BMP280;57147;53.582;10.112;2022-07-29T16:05:09;101656.91;;;29.78
69857;BMP280;57147;53.582;10.112;2022-07-29T16:10:15;101644.03;;;29.75
69857;BMP280;57147;53.582;10.112;2022-07-29T16:15:16;101652.25;;;29.37
69857;BMP280;57147;53.582;10.112;2022-07-29T16:20:16;101654.97;;;28.49
69857;BMP280;57147;53.582;10.112;2022-07-29T16:25:20;101644.34;;;28.58
69857;BMP280;57147;53.582;10.112;2022-07-29T16:30:21;101627.63;;;27.80
69857;BMP280;57147;53.582;10.112;2022-07-29T16:35:21;101640.22;;;27.17
69857;BMP280;57147;53.582;10.112;2022-07-29T16:40:25;101622.28;;;26.74
69857;BMP280;57147;53.582;10.112;2022-07-29T16:45:26;101644.47;;;26.69
69857;BMP280;57147;53.582;10.112;2022-07-29T16:50:27;101639.00;;;26.65
69857;BMP280;57147;53.582;10.112;2022-07-29T16:55:30;101634.75;;;26.60
69857;BMP280;57147;53.582;10.112;2022-07-29T17:00:30;101632.41;;;26.63
69857;BMP280;57147;53.582;10.112;2022-07-29T17:05:31;101645.44;;;26.04
69857;BMP280;57147;53.582;10.112;2022-07-29T17:10:35;101633.56;;;26.54
69857;BMP280;57147;53.582;10.112;2022-07-29T17:15:35;101633.03;;;26.10
69857;BMP280;57147;53.582;10.112;2022-07-29T17:20:36;101621.28;;;25.92
69857;BMP280;57147;53.582;10.112;2022-07-29T17:25:40;101625.56;;;25.28
69857;BMP280;57147;53.582;10.112;2022-07-29T17:30:40;101624.00;;;24.46
69857;BMP280;57147;53.582;10.112;2022-07-29T17:35:41;101635.38;;;24.25
69857;BMP280;57147;53.582;10.112;2022-07-29T17:40:45;101639.59;;;23.67
69857;BMP280;57147;53.582;10.112;2022-07-29T17:45:49;101641.84;;;23.61
69857;BMP280;57147;53.582;10.112;2022-07-29T17:50:56;101635.38;;;23.24
69857;BMP280;57147;53.582;10.112;2022-07-29T17:56:01;101630.13;;;22.89
69857;BMP280;57147;53.582;10.112;2022-07-29T18:06:38;101639.25;;;22.81
69857;BMP280;57147;53.582;10.112;2022-07-29T18:11:41;101634.69;;;22.47
69857;BMP280;57147;53.582;10.112;2022-07-29T18:16:42;101626.91;;;22.45
69857;BMP280;57147;53.582;10.112;2022-07-29T18:21:42;101623.38;;;22.41
69857;BMP280;57147;53.582;10.112;2022-07-29T18:26:46;101618.22;;;22.36
69857;BMP280;57147;53.582;10.112;2022-07-29T18:31:46;101620.06;;;22.13
69857;BMP280;57147;53.582;10.112;2022-07-29T18:36:47;101611.97;;;21.97
69857;BMP280;57147;53.582;10.112;2022-07-29T18:41:51;101618.88;;;21.79
69857;BMP280;57147;53.582;10.112;2022-07-29T18:46:52;101624.22;;;21.44
69857;BMP280;57147;53.582;10.112;2022-07-29T18:51:58;101620.03;;;21.47
69857;BMP280;57147;53.582;10.112;2022-07-29T18:57:01;101612.88;;;21.39
69857;BMP280;57147;53.582;10.112;2022-07-29T19:02:02;101611.31;;;21.38
69857;BMP280;57147;53.582;10.112;2022-07-29T19:07:03;101609.91;;;21.12
69857;BMP280;57147;53.582;10.112;2022-07-29T19:12:06;101617.47;;;21.07
69857;BMP280;57147;53.582;10.112;2022-07-29T19:17:07;101628.34;;;21.10
69857;BMP280;57147;53.582;10.112;2022-07-29T19:22:08;101635.16;;;21.04
69857;BMP280;57147;53.582;10.112;2022-07-29T19:27:11;101648.88;;;20.99
69857;BMP280;57147;53.582;10.112;2022-07-29T19:32:12;101636.13;;;20.84
69857;BMP280;57147;53.582;10.112;2022-07-29T19:37:13;101657.59;;;20.80
69857;BMP280;57147;53.582;10.112;2022-07-29T19:42:16;101674.16;;;20.79
69857;BMP280;57147;53.582;10.112;2022-07-29T19:47:17;101667.88;;;20.75
69857;BMP280;57147;53.582;10.112;2022-07-29T19:52:18;101655.72;;;20.69
69857;BMP280;57147;53.582;10.112;2022-07-29T19:57:21;101659.56;;;20.68
69857;BMP280;57147;53.582;10.112;2022-07-29T20:02:22;101657.56;;;20.53
69857;BMP280;57147;53.582;10.112;2022-07-29T20:07:23;101659.13;;;20.54
69857;BMP280;57147;53.582;10.112;2022-07-29T20:12:26;101645.34;;;20.43
69857;BMP280;57147;53.582;10.112;2022-07-29T20:17:27;101651.66;;;20.35
69857;BMP280;57147;53.582;10.112;2022-07-29T20:22:27;101646.19;;;20.19
69857;BMP280;57147;53.582;10.112;2022-07-29T20:27:31;101649.75;;;20.23
69857;BMP280;57147;53.582;10.112;2022-07-29T20:32:31;101658.50;;;20.32
69857;BMP280;57147;53.582;10.112;2022-07-29T20:37:32;101637.63;;;20.29
69857;BMP280;57147;53.582;10.112;2022-07-29T20:42:36;101647.19;;;20.15
69857;BMP280;57147;53.582;10.112;2022-07-29T20:47:36;101651.56;;;20.07
69857;BMP280;57147;53.582;10.112;2022-07-29T20:52:37;101652.00;;;19.97
69857;BMP280;57147;53.582;10.112;2022-07-29T20:57:45;101657.16;;;20.02
69857;BMP280;57147;53.582;10.112;2022-07-29T21:02:47;101657.38;;;19.97
69857;BMP280;57147;53.582;10.112;2022-07-29T21:07:50;101642.44;;;19.87
69857;BMP280;57147;53.582;10.112;2022-07-29T21:12:53;101653.34;;;19.91
69857;BMP280;57147;53.582;10.112;2022-07-29T21:17:56;101646.47;;;19.81
69857;BMP280;57147;53.582;10.112;2022-07-29T21:22:57;101659.16;;;19.81
69857;BMP280;57147;53.582;10.112;2022-07-29T21:28:00;101659.47;;;19.67
69857;BMP280;57147;53.582;10.112;2022-07-29T21:33:04;101664.09;;;19.67
69857;BMP280;57147;53.582;10.112;2022-07-29T21:38:05;101663.81;;;19.60
69857;BMP280;57147;53.582;10.112;2022-07-29T21:43:08;101655.31;;;19.58
69857;BMP280;57147;53.582;10.112;2022-07-29T21:48:09;101663.56;;;19.40
69857;BMP280;57147;53.582;10.112;2022-07-29T21:53:13;101661.16;;;19.27
69857;BMP280;57147;53.582;10.112;2022-07-29T21:58:17;101658.34;;;19.23
69857;BMP280;57147;53.582;10.112;2022-07-29T22:03:17;101642.22;;;19.03
69857;BMP280;57147;53.582;10.112;2022-07-29T22:08:18;101655.78;;;19.06
69857;BMP280;57147;53.582;10.112;2022-07-29T22:13:21;101623.38;;;18.82
69857;BMP280;57147;53.582;10.112;2022-07-29T22:18:22;101649.25;;;18.95
69857;BMP280;57147;53.582;10.112;2022-07-29T22:23:23;101645.56;;;18.79
69857;BMP280;57147;53.582;10.112;2022-07-29T22:28:26;101645.81;;;18.86
69857;BMP280;57147;53.582;10.112;2022-07-29T22:33:27;101649.88;;;18.92
69857;BMP280;57147;53.582;10.112;2022-07-29T22:38:28;101642.47;;;18.89
69857;BMP280;57147;53.582;10.112;2022-07-29T22:43:31;101648.56;;;18.98
69857;BMP280;57147;53.582;10.112;2022-07-29T22:48:32;101645.41;;;18.96
69857;BMP280;57147;53.582;10.112;2022-07-29T22:53:32;101644.50;;;18.92
69857;BMP280;57147;53.582;10.112;2022-07-29T22:58:36;101640.19;;;18.79
69857;BMP280;57147;53.582;10.112;2022-07-29T23:03:37;101627.22;;;18.72
69857;BMP280;57147;53.582;10.112;2022-07-29T23:08:37;101635.72;;;18.62
69857;BMP280;57147;53.582;10.112;2022-07-29T23:13:41;101630.88;;;18.56
69857;BMP280;57147;53.582;10.112;2022-07-29T23:18:41;101630.88;;;18.56
69857;BMP280;57147;53.582;10.112;2022-07-29T23:23:42;101631.22;;;18.45
69857;BMP280;57147;53.582;10.112;2022-07-29T23:28:45;101629.09;;;18.30
69857;BMP280;57147;53.582;10.112;2022-07-29T23:33:46;101634.75;;;18.37
69857;BMP280;57147;53.582;10.112;2022-07-29T23:38:46;101635.81;;;18.45
69857;BMP280;57147;53.582;10.112;2022-07-29T23:43:50;101636.09;;;18.52
69857;BMP280;57147;53.582;10.112;2022-07-29T23:48:51;101623.09;;;18.54
69857;BMP280;57147;53.582;10.112;2022-07-29T23:53:51;101608.78;;;18.41
69857;BMP280;57147;53.582;10.112;2022-07-29T23:58:56;101635.69;;;18.41
